sensor_id;sensor_type;location;lat;lon;timestamp;P1;durP1;ratioP1;P2;durP2;ratioP2
24425;SDS011;12611;44.446;26.000;2023-04-01T00:00:50;13.77;;;7.07;;
24425;SDS011;12611;44.446;26.000;2023-04-01T00:03:20;14.43;;;7.53;;
24425;SDS011;12611;44.446;26.000;2023-04-01T00:05:51;14.70;;;7.17;;
24425;SDS011;12611;44.446;26.000;2023-04-01T00:08:20;13.53;;;6.70;;
24425;SDS011;12611;44.446;26.000;2023-04-01T00:10:48;11.17;;;7.20;;
24425;SDS011;12611;44.446;26.000;2023-04-01T00:13:17;13.60;;;6.80;;
24425;SDS011;12611;44.446;26.000;2023-04-01T00:15:46;17.73;;;7.37;;
24425;SDS011;12611;44.446;26.000;2023-04-01T00:18:15;14.83;;;7.37;;
24425;SDS011;12611;44.446;26.000;2023-04-01T00:20:43;15.63;;;7.70;;
24425;SDS011;12611;44.446;26.000;2023-04-01T00:23:14;13.77;;;7.57;;
24425;SDS011;12611;44.446;26.000;2023-04-01T00:25:43;14.23;;;7.73;;
24425;SDS011;12611;44.446;26.000;2023-04-01T00:28:12;11.70;;;7.33;;
24425;SDS011;12611;44.446;26.000;2023-04-01T00:30:41;11.83;;;6.97;;
24425;SDS011;12611;44.446;26.000;2023-04-01T00:33:09;10.87;;;7.07;;
24425;SDS011;12611;44.446;26.000;2023-04-01T00:35:38;10.47;;;6.53;;
24425;SDS011;12611;44.446;26.000;2023-04-01T00:38:06;12.43;;;6.30;;
24425;SDS011;12611;44.446;26.000;2023-04-01T00:40:39;13.23;;;6.70;;
24425;SDS011;12611;44.446;26.000;2023-04-01T00:43:12;10.90;;;6.57;;
24425;SDS011;12611;44.446;26.000;2023-04-01T00:45:45;11.03;;;7.07;;
24425;SDS011;12611;44.446;26.000;2023-04-01T00:48:15;12.50;;;7.03;;
24425;SDS011;12611;44.446;26.000;2023-04-01T00:50:48;13.23;;;7.33;;
24425;SDS011;12611;44.446;26.000;2023-04-01T00:53:19;11.97;;;7.33;;
24425;SDS011;12611;44.446;26.000;2023-04-01T00:55:51;10.67;;;6.80;;
24425;SDS011;12611;44.446;26.000;2023-04-01T00:58:24;11.67;;;6.90;;
24425;SDS011;12611;44.446;26.000;2023-04-01T01:00:57;10.20;;;6.63;;
24425;SDS011;12611;44.446;26.000;2023-04-01T01:03:27;9.07;;;6.30;;
24425;SDS011;12611;44.446;26.000;2023-04-01T01:06:00;12.70;;;6.83;;
24425;SDS011;12611;44.446;26.000;2023-04-01T01:08:40;13.30;;;6.77;;
24425;SDS011;12611;44.446;26.000;2023-04-01T01:11:22;12.67;;;7.27;;
24425;SDS011;12611;44.446;26.000;2023-04-01T01:14:09;10.73;;;6.70;;
24425;SDS011;12611;44.446;26.000;2023-04-01T01:16:45;16.23;;;6.70;;
24425;SDS011;12611;44.446;26.000;2023-04-01T01:19:23;10.40;;;6.53;;
24425;SDS011;12611;44.446;26.000;2023-04-01T01:22:27;13.23;;;6.63;;
24425;SDS011;12611;44.446;26.000;2023-04-01T01:25:17;10.97;;;6.67;;
24425;SDS011;12611;44.446;26.000;2023-04-01T01:28:01;10.43;;;6.77;;
24425;SDS011;12611;44.446;26.000;2023-04-01T01:30:45;16.67;;;6.63;;
24425;SDS011;12611;44.446;26.000;2023-04-01T01:33:32;12.07;;;6.60;;
24425;SDS011;12611;44.446;26.000;2023-04-01T01:36:11;11.77;;;7.03;;
24425;SDS011;12611;44.446;26.000;2023-04-01T01:38:42;12.87;;;7.73;;
24425;SDS011;12611;44.446;26.000;2023-04-01T01:41:12;11.03;;;6.70;;
24425;SDS011;12611;44.446;26.000;2023-04-01T01:43:44;12.17;;;6.97;;
24425;SDS011;12611;44.446;26.000;2023-04-01T01:46:17;14.03;;;8.10;;
24425;SDS011;12611;44.446;26.000;2023-04-01T01:48:48;13.17;;;8.30;;
24425;SDS011;12611;44.446;26.000;2023-04-01T01:51:20;15.97;;;8.70;;
24425;SDS011;12611;44.446;26.000;2023-04-01T01:53:50;18.37;;;10.30;;
24425;SDS011;12611;44.446;26.000;2023-04-01T01:56:18;14.40;;;8.50;;
24425;SDS011;12611;44.446;26.000;2023-04-01T01:58:54;13.30;;;8.87;;
24425;SDS011;12611;44.446;26.000;2023-04-01T02:01:26;15.70;;;8.97;;
24425;SDS011;12611;44.446;26.000;2023-04-01T02:03:57;19.23;;;8.90;;
24425;SDS011;12611;44.446;26.000;2023-04-01T02:06:28;16.83;;;9.33;;
24425;SDS011;12611;44.446;26.000;2023-04-01T02:09:00;17.70;;;8.70;;
24425;SDS011;12611;44.446;26.000;2023-04-01T02:11:32;15.63;;;8.50;;
24425;SDS011;12611;44.446;26.000;2023-04-01T02:14:06;15.97;;;8.40;;
24425;SDS011;12611;44.446;26.000;2023-04-01T02:16:38;15.30;;;8.90;;
24425;SDS011;12611;44.446;26.000;2023-04-01T02:19:11;17.60;;;8.73;;
24425;SDS011;12611;44.446;26.000;2023-04-01T02:21:43;14.63;;;8.80;;
24425;SDS011;12611;44.446;26.000;2023-04-01T02:24:13;12.83;;;8.37;;
24425;SDS011;12611;44.446;26.000;2023-04-01T02:26:42;14.90;;;8.63;;
24425;SDS011;12611;44.446;26.000;2023-04-01T02:29:12;15.10;;;8.67;;
24425;SDS011;12611;44.446;26.000;2023-04-01T02:31:41;17.63;;;8.93;;
24425;SDS011;12611;44.446;26.000;2023-04-01T02:34:10;15.77;;;8.67;;
24425;SDS011;12611;44.446;26.000;2023-04-01T02:36:39;18.13;;;8.87;;
24425;SDS011;12611;44.446;26.000;2023-04-01T02:39:09;18.37;;;8.87;;
24425;SDS011;12611;44.446;26.000;2023-04-01T02:41:40;16.93;;;9.87;;
24425;SDS011;12611;44.446;26.000;2023-04-01T02:44:11;15.77;;;8.93;;
24425;SDS011;12611;44.446;26.000;2023-04-01T02:46:40;19.67;;;9.20;;
24425;SDS011;12611;44.446;26.000;2023-04-01T02:49:08;16.73;;;9.57;;
24425;SDS011;12611;44.446;26.000;2023-04-01T02:51:37;18.17;;;9.57;;
24425;SDS011;12611;44.446;26.000;2023-04-01T02:54:06;16.80;;;10.00;;
24425;SDS011;12611;44.446;26.000;2023-04-01T02:56:36;17.60;;;10.37;;
24425;SDS011;12611;44.446;26.000;2023-04-01T02:59:04;16.80;;;10.47;;
24425;SDS011;12611;44.446;26.000;2023-04-01T03:01:32;16.40;;;9.73;;
24425;SDS011;12611;44.446;26.000;2023-04-01T03:04:01;15.27;;;9.43;;
24425;SDS011;12611;44.446;26.000;2023-04-01T03:06:30;16.43;;;10.07;;
24425;SDS011;12611;44.446;26.000;2023-04-01T03:08:58;17.40;;;9.37;;
24425;SDS011;12611;44.446;26.000;2023-04-01T03:11:27;17.53;;;9.87;;
24425;SDS011;12611;44.446;26.000;2023-04-01T03:13:56;15.83;;;9.67;;
24425;SDS011;12611;44.446;26.000;2023-04-01T03:16:25;19.80;;;10.20;;
24425;SDS011;12611;44.446;26.000;2023-04-01T03:18:53;18.43;;;10.50;;
24425;SDS011;12611;44.446;26.000;2023-04-01T03:21:25;18.77;;;10.97;;
24425;SDS011;12611;44.446;26.000;2023-04-01T03:23:53;18.57;;;10.50;;
24425;SDS011;12611;44.446;26.000;2023-04-01T03:26:22;16.97;;;10.70;;
24425;SDS011;12611;44.446;26.000;2023-04-01T03:28:50;21.20;;;11.23;;
24425;SDS011;12611;44.446;26.000;2023-04-01T03:31:20;19.40;;;10.70;;
24425;SDS011;12611;44.446;26.000;2023-04-01T03:33:49;18.03;;;10.43;;
24425;SDS011;12611;44.446;26.000;2023-04-01T03:36:17;19.00;;;10.80;;
24425;SDS011;12611;44.446;26.000;2023-04-01T03:38:46;24.87;;;11.30;;
24425;SDS011;12611;44.446;26.000;2023-04-01T03:41:15;14.10;;;9.97;;
24425;SDS011;12611;44.446;26.000;2023-04-01T03:43:44;17.43;;;10.97;;
24425;SDS011;12611;44.446;26.000;2023-04-01T03:46:16;22.10;;;11.40;;
24425;SDS011;12611;44.446;26.000;2023-04-01T03:48:46;15.67;;;10.50;;
24425;SDS011;12611;44.446;26.000;2023-04-01T03:51:15;15.70;;;10.03;;
24425;SDS011;12611;44.446;26.000;2023-04-01T03:53:43;22.97;;;10.63;;
24425;SDS011;12611;44.446;26.000;2023-04-01T03:56:12;20.93;;;11.20;;
24425;SDS011;12611;44.446;26.000;2023-04-01T03:58:41;22.00;;;11.13;;
24425;SDS011;12611;44.446;26.000;2023-04-01T04:01:16;19.80;;;11.40;;
24425;SDS011;12611;44.446;26.000;2023-04-01T04:03:48;24.67;;;11.80;;
24425;SDS011;12611;44.446;26.000;2023-04-01T04:06:18;21.13;;;11.93;;
24425;SDS011;12611;44.446;26.000;2023-04-01T04:08:46;17.97;;;11.07;;
24425;SDS011;12611;44.446;26.000;2023-04-01T04:11:15;20.70;;;11.40;;
24425;SDS011;12611;44.446;26.000;2023-04-01T04:13:44;26.13;;;11.90;;
24425;SDS011;12611;44.446;26.000;2023-04-01T04:16:14;21.87;;;11.60;;
24425;SDS011;12611;44.446;26.000;2023-04-01T04:18:44;18.77;;;11.47;;
24425;SDS011;12611;44.446;26.000;2023-04-01T04:21:14;25.90;;;12.57;;
24425;SDS011;12611;44.446;26.000;2023-04-01T04:23:43;26.47;;;14.10;;
24425;SDS011;12611;44.446;26.000;2023-04-01T04:26:12;25.53;;;14.60;;
24425;SDS011;12611;44.446;26.000;2023-04-01T04:28:41;24.27;;;13.33;;
24425;SDS011;12611;44.446;26.000;2023-04-01T04:31:10;22.73;;;12.13;;
24425;SDS011;12611;44.446;26.000;2023-04-01T04:33:38;23.63;;;12.60;;
24425;SDS011;12611;44.446;26.000;2023-04-01T04:36:07;21.83;;;11.93;;
24425;SDS011;12611;44.446;26.000;2023-04-01T04:38:37;18.97;;;11.17;;
24425;SDS011;12611;44.446;26.000;2023-04-01T04:41:08;19.37;;;11.33;;
24425;SDS011;12611;44.446;26.000;2023-04-01T04:43:38;19.47;;;10.67;;
24425;SDS011;12611;44.446;26.000;2023-04-01T04:46:06;15.27;;;10.00;;
24425;SDS011;12611;44.446;26.000;2023-04-01T04:48:35;17.60;;;11.43;;
24425;SDS011;12611;44.446;26.000;2023-04-01T04:51:03;21.27;;;11.23;;
24425;SDS011;12611;44.446;26.000;2023-04-01T04:53:32;21.03;;;11.50;;
24425;SDS011;12611;44.446;26.000;2023-04-01T04:56:01;16.53;;;11.10;;
24425;SDS011;12611;44.446;26.000;2023-04-01T04:58:30;20.33;;;11.37;;
24425;SDS011;12611;44.446;26.000;2023-04-01T05:00:58;16.97;;;11.03;;
24425;SDS011;12611;44.446;26.000;2023-04-01T05:03:26;18.47;;;10.90;;
24425;SDS011;12611;44.446;26.000;2023-04-01T05:05:55;18.80;;;10.70;;
24425;SDS011;12611;44.446;26.000;2023-04-01T05:08:23;20.40;;;11.43;;
24425;SDS011;12611;44.446;26.000;2023-04-01T05:10:52;18.57;;;10.70;;
24425;SDS011;12611;44.446;26.000;2023-04-01T05:13:21;17.53;;;10.40;;
24425;SDS011;12611;44.446;26.000;2023-04-01T05:15:50;15.57;;;10.30;;
24425;SDS011;12611;44.446;26.000;2023-04-01T05:18:18;19.23;;;10.80;;
24425;SDS011;12611;44.446;26.000;2023-04-01T05:20:47;17.30;;;11.03;;
24425;SDS011;12611;44.446;26.000;2023-04-01T05:23:16;18.87;;;10.97;;
24425;SDS011;12611;44.446;26.000;2023-04-01T05:25:45;19.70;;;12.03;;
24425;SDS011;12611;44.446;26.000;2023-04-01T05:28:13;18.03;;;11.00;;
24425;SDS011;12611;44.446;26.000;2023-04-01T05:30:43;17.07;;;10.60;;
24425;SDS011;12611;44.446;26.000;2023-04-01T05:33:12;18.23;;;11.03;;
24425;SDS011;12611;44.446;26.000;2023-04-01T05:35:41;21.87;;;12.10;;
24425;SDS011;12611;44.446;26.000;2023-04-01T05:38:09;23.07;;;11.87;;
24425;SDS011;12611;44.446;26.000;2023-04-01T05:40:38;21.97;;;12.33;;
24425;SDS011;12611;44.446;26.000;2023-04-01T05:43:06;19.87;;;12.20;;
24425;SDS011;12611;44.446;26.000;2023-04-01T05:45:34;20.33;;;12.07;;
24425;SDS011;12611;44.446;26.000;2023-04-01T05:48:04;23.37;;;12.73;;
24425;SDS011;12611;44.446;26.000;2023-04-01T05:50:33;19.43;;;12.13;;
24425;SDS011;12611;44.446;26.000;2023-04-01T05:53:01;17.93;;;11.70;;
24425;SDS011;12611;44.446;26.000;2023-04-01T05:55:29;19.40;;;12.23;;
24425;SDS011;12611;44.446;26.000;2023-04-01T05:57:58;22.53;;;12.27;;
24425;SDS011;12611;44.446;26.000;2023-04-01T06:00:26;19.73;;;11.23;;
24425;SDS011;12611;44.446;26.000;2023-04-01T06:02:55;20.73;;;11.60;;
24425;SDS011;12611;44.446;26.000;2023-04-01T06:05:29;21.60;;;12.07;;
24425;SDS011;12611;44.446;26.000;2023-04-01T06:07:59;23.03;;;13.07;;
24425;SDS011;12611;44.446;26.000;2023-04-01T06:10:33;24.63;;;13.23;;
24425;SDS011;12611;44.446;26.000;2023-04-01T06:13:12;24.03;;;13.93;;
24425;SDS011;12611;44.446;26.000;2023-04-01T06:15:49;18.03;;;11.77;;
24425;SDS011;12611;44.446;26.000;2023-04-01T06:21:35;23.40;;;12.27;;
24425;SDS011;12611;44.446;26.000;2023-04-01T06:24:31;16.70;;;11.23;;
24425;SDS011;12611;44.446;26.000;2023-04-01T06:27:14;20.53;;;11.20;;
24425;SDS011;12611;44.446;26.000;2023-04-01T06:30:01;22.07;;;11.77;;
24425;SDS011;12611;44.446;26.000;2023-04-01T06:32:41;19.63;;;11.50;;
24425;SDS011;12611;44.446;26.000;2023-04-01T06:35:34;18.67;;;11.33;;
24425;SDS011;12611;44.446;26.000;2023-04-01T06:38:27;22.27;;;11.53;;
24425;SDS011;12611;44.446;26.000;2023-04-01T06:44:20;21.13;;;11.77;;
24425;SDS011;12611;44.446;26.000;2023-04-01T06:46:57;18.87;;;11.53;;
24425;SDS011;12611;44.446;26.000;2023-04-01T06:49:35;22.23;;;11.90;;
24425;SDS011;12611;44.446;26.000;2023-04-01T06:52:13;19.13;;;11.43;;
24425;SDS011;12611;44.446;26.000;2023-04-01T06:54:49;18.40;;;10.70;;
24425;SDS011;12611;44.446;26.000;2023-04-01T06:57:24;21.60;;;12.83;;
24425;SDS011;12611;44.446;26.000;2023-04-01T06:59:59;29.27;;;11.60;;
24425;SDS011;12611;44.446;26.000;2023-04-01T07:02:32;26.40;;;12.07;;
24425;SDS011;12611;44.446;26.000;2023-04-01T07:05:05;18.50;;;10.60;;
24425;SDS011;12611;44.446;26.000;2023-04-01T07:07:38;19.40;;;11.13;;
24425;SDS011;12611;44.446;26.000;2023-04-01T07:10:12;18.20;;;11.50;;
24425;SDS011;12611;44.446;26.000;2023-04-01T07:12:46;17.17;;;10.90;;
24425;SDS011;12611;44.446;26.000;2023-04-01T07:15:19;17.60;;;10.47;;
24425;SDS011;12611;44.446;26.000;2023-04-01T07:17:52;24.83;;;11.30;;
24425;SDS011;12611;44.446;26.000;2023-04-01T07:20:23;16.73;;;10.40;;
24425;SDS011;12611;44.446;26.000;2023-04-01T07:22:56;21.50;;;11.40;;
24425;SDS011;12611;44.446;26.000;2023-04-01T07:25:29;19.57;;;11.30;;
24425;SDS011;12611;44.446;26.000;2023-04-01T07:28:02;17.50;;;11.27;;
24425;SDS011;12611;44.446;26.000;2023-04-01T07:30:33;24.80;;;12.17;;
24425;SDS011;12611;44.446;26.000;2023-04-01T07:33:13;25.87;;;11.70;;
24425;SDS011;12611;44.446;26.000;2023-04-01T07:35:49;19.13;;;11.50;;
24425;SDS011;12611;44.446;26.000;2023-04-01T07:38:24;21.77;;;11.73;;
24425;SDS011;12611;44.446;26.000;2023-04-01T07:41:01;18.50;;;12.53;;
24425;SDS011;12611;44.446;26.000;2023-04-01T07:43:43;22.30;;;13.30;;
24425;SDS011;12611;44.446;26.000;2023-04-01T07:46:21;23.30;;;12.33;;
24425;SDS011;12611;44.446;26.000;2023-04-01T07:49:07;23.53;;;13.87;;
24425;SDS011;12611;44.446;26.000;2023-04-01T07:51:42;26.20;;;14.83;;
24425;SDS011;12611;44.446;26.000;2023-04-01T07:54:21;25.40;;;14.30;;
24425;SDS011;12611;44.446;26.000;2023-04-01T07:56:57;25.67;;;14.90;;
24425;SDS011;12611;44.446;26.000;2023-04-01T07:59:32;27.97;;;16.20;;
24425;SDS011;12611;44.446;26.000;2023-04-01T08:02:16;22.70;;;14.77;;
24425;SDS011;12611;44.446;26.000;2023-04-01T08:04:59;33.33;;;17.87;;
24425;SDS011;12611;44.446;26.000;2023-04-01T08:07:36;29.47;;;15.90;;
24425;SDS011;12611;44.446;26.000;2023-04-01T08:10:11;25.07;;;14.90;;
24425;SDS011;12611;44.446;26.000;2023-04-01T08:12:51;23.03;;;15.07;;
24425;SDS011;12611;44.446;26.000;2023-04-01T08:15:31;26.37;;;15.40;;
24425;SDS011;12611;44.446;26.000;2023-04-01T08:18:09;22.37;;;13.43;;
24425;SDS011;12611;44.446;26.000;2023-04-01T08:20:48;25.07;;;13.87;;
24425;SDS011;12611;44.446;26.000;2023-04-01T08:23:21;22.30;;;14.13;;
24425;SDS011;12611;44.446;26.000;2023-04-01T08:25:53;25.90;;;14.73;;
24425;SDS011;12611;44.446;26.000;2023-04-01T08:28:27;25.17;;;14.33;;
24425;SDS011;12611;44.446;26.000;2023-04-01T08:31:03;26.53;;;15.07;;
24425;SDS011;12611;44.446;26.000;2023-04-01T08:33:34;21.33;;;14.10;;
24425;SDS011;12611;44.446;26.000;2023-04-01T08:36:05;28.87;;;15.27;;
24425;SDS011;12611;44.446;26.000;2023-04-01T08:38:38;29.07;;;14.67;;
24425;SDS011;12611;44.446;26.000;2023-04-01T08:41:20;26.67;;;15.37;;
24425;SDS011;12611;44.446;26.000;2023-04-01T08:50:30;25.47;;;15.43;;
24425;SDS011;12611;44.446;26.000;2023-04-01T08:53:10;28.37;;;15.87;;
24425;SDS011;12611;44.446;26.000;2023-04-01T08:55:46;29.43;;;16.17;;
24425;SDS011;12611;44.446;26.000;2023-04-01T09:01:55;30.17;;;17.10;;
24425;SDS011;12611;44.446;26.000;2023-04-01T09:04:46;25.77;;;16.30;;
24425;SDS011;12611;44.446;26.000;2023-04-01T09:07:31;25.50;;;15.87;;
24425;SDS011;12611;44.446;26.000;2023-04-01T09:10:17;26.00;;;15.83;;
24425;SDS011;12611;44.446;26.000;2023-04-01T09:13:14;26.10;;;15.50;;
24425;SDS011;12611;44.446;26.000;2023-04-01T09:16:03;27.07;;;15.07;;
24425;SDS011;12611;44.446;26.000;2023-04-01T09:18:56;27.67;;;15.30;;
24425;SDS011;12611;44.446;26.000;2023-04-01T09:24:59;19.97;;;12.73;;
24425;SDS011;12611;44.446;26.000;2023-04-01T09:27:43;22.83;;;13.03;;
24425;SDS011;12611;44.446;26.000;2023-04-01T09:36:38;23.53;;;14.53;;
24425;SDS011;12611;44.446;26.000;2023-04-01T09:39:30;27.80;;;14.87;;
24425;SDS011;12611;44.446;26.000;2023-04-01T09:42:25;25.13;;;14.40;;
24425;SDS011;12611;44.446;26.000;2023-04-01T09:45:09;23.50;;;12.67;;
24425;SDS011;12611;44.446;26.000;2023-04-01T09:47:51;22.07;;;12.73;;
24425;SDS011;12611;44.446;26.000;2023-04-01T09:50:32;23.37;;;13.63;;
24425;SDS011;12611;44.446;26.000;2023-04-01T09:53:13;18.57;;;12.00;;
24425;SDS011;12611;44.446;26.000;2023-04-01T09:59:15;22.73;;;12.20;;
24425;SDS011;12611;44.446;26.000;2023-04-01T10:02:25;19.20;;;11.70;;
24425;SDS011;12611;44.446;26.000;2023-04-01T10:08:23;16.57;;;10.37;;
24425;SDS011;12611;44.446;26.000;2023-04-01T10:11:09;18.97;;;10.83;;
24425;SDS011;12611;44.446;26.000;2023-04-01T10:17:17;20.97;;;11.00;;
24425;SDS011;12611;44.446;26.000;2023-04-01T10:20:28;20.53;;;11.73;;
24425;SDS011;12611;44.446;26.000;2023-04-01T10:23:20;17.13;;;10.70;;
24425;SDS011;12611;44.446;26.000;2023-04-01T10:26:05;14.87;;;10.03;;
24425;SDS011;12611;44.446;26.000;2023-04-01T10:32:14;16.10;;;9.57;;
24425;SDS011;12611;44.446;26.000;2023-04-01T10:35:21;16.33;;;9.67;;
24425;SDS011;12611;44.446;26.000;2023-04-01T10:38:19;21.85;;;11.32;;
24425;SDS011;12611;44.446;26.000;2023-04-01T10:44:27;16.13;;;10.77;;
24425;SDS011;12611;44.446;26.000;2023-04-01T10:47:26;16.83;;;9.07;;
24425;SDS011;12611;44.446;26.000;2023-04-01T10:50:24;14.70;;;9.20;;
24425;SDS011;12611;44.446;26.000;2023-04-01T10:53:13;14.03;;;8.87;;
24425;SDS011;12611;44.446;26.000;2023-04-01T10:59:15;11.33;;;7.47;;
24425;SDS011;12611;44.446;26.000;2023-04-01T11:15:07;14.10;;;8.57;;
24425;SDS011;12611;44.446;26.000;2023-04-01T11:21:27;13.50;;;7.67;;
24425;SDS011;12611;44.446;26.000;2023-04-01T11:24:34;12.70;;;8.00;;
24425;SDS011;12611;44.446;26.000;2023-04-01T11:27:41;14.10;;;7.90;;
24425;SDS011;12611;44.446;26.000;2023-04-01T11:30:33;14.50;;;7.40;;
24425;SDS011;12611;44.446;26.000;2023-04-01T11:33:12;11.93;;;6.80;;
24425;SDS011;12611;44.446;26.000;2023-04-01T11:36:02;15.40;;;8.00;;
24425;SDS011;12611;44.446;26.000;2023-04-01T11:38:51;15.07;;;7.03;;
24425;SDS011;12611;44.446;26.000;2023-04-01T11:41:32;9.57;;;6.43;;
24425;SDS011;12611;44.446;26.000;2023-04-01T11:44:13;12.77;;;6.67;;
24425;SDS011;12611;44.446;26.000;2023-04-01T11:46:48;14.00;;;6.53;;
24425;SDS011;12611;44.446;26.000;2023-04-01T11:49:29;12.97;;;7.17;;
24425;SDS011;12611;44.446;26.000;2023-04-01T11:52:11;11.30;;;6.40;;
24425;SDS011;12611;44.446;26.000;2023-04-01T11:54:56;9.53;;;5.70;;
24425;SDS011;12611;44.446;26.000;2023-04-01T11:57:53;11.37;;;6.60;;
24425;SDS011;12611;44.446;26.000;2023-04-01T12:00:47;10.87;;;5.70;;
24425;SDS011;12611;44.446;26.000;2023-04-01T12:03:30;8.20;;;4.77;;
24425;SDS011;12611;44.446;26.000;2023-04-01T12:06:11;8.73;;;5.20;;
24425;SDS011;12611;44.446;26.000;2023-04-01T12:08:45;11.87;;;5.07;;
24425;SDS011;12611;44.446;26.000;2023-04-01T12:11:21;11.77;;;6.00;;
24425;SDS011;12611;44.446;26.000;2023-04-01T12:13:58;8.60;;;5.00;;
24425;SDS011;12611;44.446;26.000;2023-04-01T12:16:46;12.23;;;6.63;;
24425;SDS011;12611;44.446;26.000;2023-04-01T12:19:24;13.33;;;5.30;;
24425;SDS011;12611;44.446;26.000;2023-04-01T12:22:17;7.53;;;4.93;;
24425;SDS011;12611;44.446;26.000;2023-04-01T12:24:56;9.67;;;5.27;;
24425;SDS011;12611;44.446;26.000;2023-04-01T12:27:39;9.80;;;5.93;;
24425;SDS011;12611;44.446;26.000;2023-04-01T12:30:17;13.80;;;6.15;;
24425;SDS011;12611;44.446;26.000;2023-04-01T12:33:10;15.37;;;5.93;;
24425;SDS011;12611;44.446;26.000;2023-04-01T12:36:00;9.93;;;6.13;;
24425;SDS011;12611;44.446;26.000;2023-04-01T12:38:42;9.77;;;6.37;;
24425;SDS011;12611;44.446;26.000;2023-04-01T12:41:18;10.53;;;6.97;;
24425;SDS011;12611;44.446;26.000;2023-04-01T12:44:00;12.77;;;7.23;;
24425;SDS011;12611;44.446;26.000;2023-04-01T12:47:04;11.20;;;7.33;;
24425;SDS011;12611;44.446;26.000;2023-04-01T12:50:02;12.57;;;7.47;;
24425;SDS011;12611;44.446;26.000;2023-04-01T12:52:47;11.40;;;7.10;;
24425;SDS011;12611;44.446;26.000;2023-04-01T12:55:34;15.00;;;8.23;;
24425;SDS011;12611;44.446;26.000;2023-04-01T13:01:08;13.30;;;7.63;;
24425;SDS011;12611;44.446;26.000;2023-04-01T13:07:06;15.27;;;8.73;;
24425;SDS011;12611;44.446;26.000;2023-04-01T13:09:57;15.10;;;9.07;;
24425;SDS011;12611;44.446;26.000;2023-04-01T13:12:36;15.90;;;9.53;;
24425;SDS011;12611;44.446;26.000;2023-04-01T13:15:28;15.37;;;9.30;;
24425;SDS011;12611;44.446;26.000;2023-04-01T13:18:07;19.07;;;10.30;;
24425;SDS011;12611;44.446;26.000;2023-04-01T13:20:53;14.20;;;8.40;;
24425;SDS011;12611;44.446;26.000;2023-04-01T13:23:33;11.20;;;7.53;;
24425;SDS011;12611;44.446;26.000;2023-04-01T13:26:13;13.37;;;7.30;;
24425;SDS011;12611;44.446;26.000;2023-04-01T13:28:47;11.27;;;6.53;;
24425;SDS011;12611;44.446;26.000;2023-04-01T13:31:26;13.50;;;6.73;;
24425;SDS011;12611;44.446;26.000;2023-04-01T13:36:59;13.50;;;7.20;;
24425;SDS011;12611;44.446;26.000;2023-04-01T13:39:46;9.90;;;5.60;;
24425;SDS011;12611;44.446;26.000;2023-04-01T13:42:25;9.53;;;5.40;;
24425;SDS011;12611;44.446;26.000;2023-04-01T13:44:59;8.50;;;5.47;;
24425;SDS011;12611;44.446;26.000;2023-04-01T13:50:50;11.87;;;6.30;;
24425;SDS011;12611;44.446;26.000;2023-04-01T13:53:41;12.30;;;6.30;;
24425;SDS011;12611;44.446;26.000;2023-04-01T13:56:34;11.13;;;5.80;;
24425;SDS011;12611;44.446;26.000;2023-04-01T13:59:15;10.30;;;5.37;;
24425;SDS011;12611;44.446;26.000;2023-04-01T14:02:14;8.00;;;4.10;;
24425;SDS011;12611;44.446;26.000;2023-04-01T14:04:59;8.00;;;4.53;;
24425;SDS011;12611;44.446;26.000;2023-04-01T14:07:50;9.40;;;4.20;;
24425;SDS011;12611;44.446;26.000;2023-04-01T14:10:30;9.87;;;4.80;;
24425;SDS011;12611;44.446;26.000;2023-04-01T14:13:05;9.20;;;4.93;;
24425;SDS011;12611;44.446;26.000;2023-04-01T14:18:57;10.70;;;4.97;;
24425;SDS011;12611;44.446;26.000;2023-04-01T14:21:52;10.13;;;4.77;;
24425;SDS011;12611;44.446;26.000;2023-04-01T14:24:42;9.70;;;4.50;;
24425;SDS011;12611;44.446;26.000;2023-04-01T14:27:37;8.60;;;4.30;;
24425;SDS011;12611;44.446;26.000;2023-04-01T14:30:20;8.43;;;4.93;;
24425;SDS011;12611;44.446;26.000;2023-04-01T14:32:57;8.13;;;4.70;;
24425;SDS011;12611;44.446;26.000;2023-04-01T14:35:37;11.23;;;6.03;;
24425;SDS011;12611;44.446;26.000;2023-04-01T14:38:20;10.17;;;5.80;;
24425;SDS011;12611;44.446;26.000;2023-04-01T14:41:00;10.80;;;5.10;;
24425;SDS011;12611;44.446;26.000;2023-04-01T14:46:57;10.97;;;5.67;;
24425;SDS011;12611;44.446;26.000;2023-04-01T14:49:51;13.10;;;6.33;;
24425;SDS011;12611;44.446;26.000;2023-04-01T14:52:25;9.80;;;5.30;;
24425;SDS011;12611;44.446;26.000;2023-04-01T14:54:58;11.57;;;5.90;;
24425;SDS011;12611;44.446;26.000;2023-04-01T14:57:28;8.10;;;4.63;;
24425;SDS011;12611;44.446;26.000;2023-04-01T14:59:59;8.87;;;5.47;;
24425;SDS011;12611;44.446;26.000;2023-04-01T15:02:45;7.47;;;4.20;;
24425;SDS011;12611;44.446;26.000;2023-04-01T15:05:26;14.00;;;8.93;;
24425;SDS011;12611;44.446;26.000;2023-04-01T15:13:53;73.90;;;33.17;;
24425;SDS011;12611;44.446;26.000;2023-04-01T15:16:34;222.13;;;85.93;;
24425;SDS011;12611;44.446;26.000;2023-04-01T15:19:14;184.57;;;69.17;;
24425;SDS011;12611;44.446;26.000;2023-04-01T15:21:59;31.87;;;16.93;;
24425;SDS011;12611;44.446;26.000;2023-04-01T15:25:00;50.50;;;26.80;;
24425;SDS011;12611;44.446;26.000;2023-04-01T15:27:55;56.27;;;30.27;;
24425;SDS011;12611;44.446;26.000;2023-04-01T15:30:34;43.07;;;22.87;;
24425;SDS011;12611;44.446;26.000;2023-04-01T15:33:13;18.07;;;8.00;;
24425;SDS011;12611;44.446;26.000;2023-04-01T15:36:02;18.10;;;9.43;;
24425;SDS011;12611;44.446;26.000;2023-04-01T15:38:38;10.47;;;7.83;;
24425;SDS011;12611;44.446;26.000;2023-04-01T15:41:14;24.00;;;14.87;;
24425;SDS011;12611;44.446;26.000;2023-04-01T15:43:44;8.33;;;4.47;;
24425;SDS011;12611;44.446;26.000;2023-04-01T15:46:20;8.80;;;4.90;;
24425;SDS011;12611;44.446;26.000;2023-04-01T15:49:05;12.97;;;5.23;;
24425;SDS011;12611;44.446;26.000;2023-04-01T15:51:47;11.57;;;4.70;;
24425;SDS011;12611;44.446;26.000;2023-04-01T15:57:33;10.07;;;5.40;;
24425;SDS011;12611;44.446;26.000;2023-04-01T16:03:01;12.10;;;5.40;;
24425;SDS011;12611;44.446;26.000;2023-04-01T16:05:53;14.50;;;5.50;;
24425;SDS011;12611;44.446;26.000;2023-04-01T16:08:41;14.77;;;6.57;;
24425;SDS011;12611;44.446;26.000;2023-04-01T16:11:24;15.43;;;5.80;;
24425;SDS011;12611;44.446;26.000;2023-04-01T16:14:06;10.03;;;5.90;;
24425;SDS011;12611;44.446;26.000;2023-04-01T16:16:46;10.90;;;6.07;;
24425;SDS011;12611;44.446;26.000;2023-04-01T16:19:39;15.70;;;6.90;;
24425;SDS011;12611;44.446;26.000;2023-04-01T16:22:18;18.23;;;6.03;;
24425;SDS011;12611;44.446;26.000;2023-04-01T16:24:53;15.03;;;6.73;;
24425;SDS011;12611;44.446;26.000;2023-04-01T16:27:28;12.77;;;6.67;;
24425;SDS011;12611;44.446;26.000;2023-04-01T16:30:16;14.83;;;6.53;;
24425;SDS011;12611;44.446;26.000;2023-04-01T16:32:57;11.83;;;6.80;;
24425;SDS011;12611;44.446;26.000;2023-04-01T16:35:31;12.47;;;7.10;;
24425;SDS011;12611;44.446;26.000;2023-04-01T16:38:11;10.97;;;6.93;;
24425;SDS011;12611;44.446;26.000;2023-04-01T16:40:50;12.93;;;7.23;;
24425;SDS011;12611;44.446;26.000;2023-04-01T16:43:29;14.47;;;7.40;;
24425;SDS011;12611;44.446;26.000;2023-04-01T16:52:02;11.13;;;6.43;;
24425;SDS011;12611;44.446;26.000;2023-04-01T16:54:43;14.50;;;7.23;;